Pine Hills (222, JU1, PE1) Station Data

Red Flag Warning: Yes
Fire Weather Zone: 258
SDGE Region: Ramona
Lat/Lon: 33.049/-116.637

Observations

Time Wind Speed/Gust Temp(F) RH Fuel Moist Fuel Temp(F) Dewpt(F) Tmax(F) Tmin(F) Accum Precip 10-min Precip SL Press(mb)
6/27 5:00pm 278 12 G 18 84° 15% - - 30° 88.1° 60.9° - - -
6/27 4:50pm 281 10 G 19 84° 15% - - 31° 88.1° 60.9° - - -
6/27 4:40pm 277 11 G 17 85° 15% - - 32° 88.1° 60.9° - - -
6/27 4:30pm 277 9 G 17 85° 16% - - 33° 88.1° 60.9° - - -
6/27 4:20pm 273 10 G 17 85° 16% - - 33° 88.1° 60.9° - - -
6/27 4:10pm 275 11 G 18 85° 14% - - 30° 88.1° 60.9° - - -
6/27 4:00pm 276 11 G 19 85° 14% - - 30° 88.1° 60.9° - - -
6/27 3:50pm 276 11 G 17 85° 14% - - 31° 88.1° 60.9° - - -
6/27 3:40pm 283 11 G 18 85° 15% - - 33° 88.1° 60.9° - - -
6/27 3:30pm 277 11 G 20 85° 16% - - 34° 88.1° 60.9° - - -
6/27 3:20pm 275 11 G 20 86° 16% - - 35° 88.1° 60.9° - - -
6/27 3:10pm 275 11 G 18 86° 17% - - 37° 88.1° 60.9° - - -
6/27 3:00pm 272 12 G 20 86° 18% - - 37° 88.1° 60.9° - - -
6/27 2:50pm 277 11 G 20 87° 18% - - 38° 88.1° 60.9° - - -
6/27 2:40pm 274 11 G 21 86° 18% - - 37° 88.1° 60.9° - - -
6/27 2:30pm 279 12 G 26 86° 17% - - 36° 88.1° 60.9° - - -
6/27 2:20pm 279 12 G 23 86° 16% - - 35° 88.1° 60.9° - - -
6/27 2:10pm 285 11 G 22 87° 14% - - 33° 88.1° 60.9° - - -
6/27 2:00pm 282 10 G 22 87° 14% - - 31° 88.1° 60.9° - - -
6/27 1:50pm 286 11 G 19 87° 12% - - 28° 88.1° 60.9° - - -
6/27 1:40pm 278 10 G 18 87° 11% - - 27° 88.1° 60.9° - - -
6/27 1:30pm 278 11 G 18 87° 12% - - 27° 88.1° 60.9° - - -
6/27 1:20pm 276 11 G 20 87° 11% - - 27° 88.1° 60.9° - - -
6/27 1:10pm 276 11 G 19 87° 11% - - 27° 88.1° 60.9° - - -
6/27 1:00pm 283 10 G 19 87° 11% - - 26° 88.1° 60.9° - - -
6/27 12:50pm 287 11 G 19 87° 11% - - 25° 87.4° 60.9° - - -
6/27 12:40pm 278 11 G 22 86° 11% - - 26° 87.3° 60.9° - - -
6/27 12:30pm 289 10 G 19 86° 11% - - 25° 87.2° 60.9° - - -
6/27 12:20pm 280 10 G 22 86° 11% - - 26° 87.2° 60.9° - - -
6/27 12:10pm 280 10 G 22 86° 11% - - 26° 86.9° 60.9° - - -
6/27 12:00pm 280 9 G 20 86° 12% - - 27° 86.9° 60.9° - - -
6/27 11:50am 286 10 G 21 86° 11% - - 26° 86.9° 60.9° - - -
6/27 11:40am 283 10 G 17 86° 11% - - 26° 86.5° 60.9° - - -
6/27 11:30am 279 10 G 20 85° 11% - - 25° 86.5° 60.9° - - -
6/27 11:20am 280 9 G 18 85° 11% - - 25° 86.4° 60.9° - - -
6/27 11:10am 277 9 G 15 85° 11% - - 25° 86° 60.9° - - -
6/27 11:00am 278 9 G 16 85° 11% - - 25° 85.2° 60.9° - - -
6/27 10:50am 292 9 G 16 84° 12% - - 26° 85.1° 60.9° - - -
6/27 10:40am 282 10 G 19 83° 12% - - 25° 84.8° 60.9° - - -
6/27 10:30am 277 9 G 18 84° 12% - - 26° 84.8° 60.9° - - -
6/27 10:20am 291 7 G 12 84° 12% - - 26° 84.6° 60.9° - - -
6/27 10:10am 292 8 G 14 83° 12% - - 25° 83.8° 60.9° - - -
6/27 10:00am 291 10 G 15 82° 12% - - 24° 83.1° 60.9° - - -
6/27 9:50am 285 10 G 15 82° 12% - - 24° 83.1° 60.9° - - -
6/27 9:40am 293 10 G 14 82° 11% - - 23° 82.6° 60.9° - - -
6/27 9:30am 284 9 G 16 81° 12% - - 24° 82.1° 60.9° - - -
6/27 9:20am 279 10 G 18 81° 11% - - 22° 82° 60.9° - - -
6/27 9:10am 289 7 G 15 81° 12% - - 24° 81.9° 60.9° - - -
6/27 9:00am 290 7 G 12 80° 13% - - 24° 80.9° 60.9° - - -
6/27 8:50am 307 5 G 9 79° 17% - - 30° 79.9° 60.9° - - -
6/27 8:40am 299 3 G 6 78° 18% - - 30° 78.7° 60.9° - - -
6/27 8:30am 275 2 G 4 77° 17% - - 28° 78° 60.9° - - -
6/27 8:20am 340 1 G 2 75° 21% - - 33° 76.6° 60.9° - - -
6/27 8:10am 287 0 G 2 72° 24% - - 33° 74.9° 60.9° - - -
6/27 8:00am 301 1 G 2 70° 26% - - 33° 74.9° 60.9° - - -
6/27 7:50am 311 1 G 2 68° 26% - - 32° 74.9° 60.9° - - -
6/27 7:40am 285 1 G 3 67° 25% - - 30° 74.9° 60.9° - - -
6/27 7:30am 298 1 G 3 66° 25% - - 29° 74.9° 60.9° - - -
6/27 7:20am 292 2 G 3 66° 23% - - 28° 74.9° 60.9° - - -
6/27 7:10am 261 1 G 3 65° 27% - - 30° 74.9° 60.9° - - -
6/27 7:00am 284 1 G 2 63° 27% - - 29° 74.9° 60.9° - - -
6/27 6:50am 278 1 G 2 64° 26% - - 28° 74.9° 60.9° - - -
6/27 6:40am 263 2 G 4 63° 24% - - 25° 74.9° 60.9° - - -
6/27 6:30am 277 1 G 4 64° 23% - - 25° 74.9° 60.9° - - -
6/27 6:20am 155 1 G 2 64° 22% - - 24° 74.9° 60.9° - - -
6/27 6:10am 250 2 G 3 64° 22% - - 24° 74.9° 60.9° - - -
6/27 6:00am 173 3 G 6 72° 14% - - 21° 75° 70.5° - - -
6/27 5:50am 179 3 G 6 71° 15% - - 21° 75° 70.5° - - -
6/27 5:40am 181 3 G 7 72° 15% - - 21° 75° 70.5° - - -
6/27 5:30am 181 4 G 7 71° 15% - - 21° 75° 70.5° - - -
6/27 5:20am 181 3 G 6 71° 15% - - 21° 75° 70.5° - - -
6/27 5:10am 191 3 G 6 71° 15% - - 22° 75° 70.5° - - -
6/27 5:00am 184 3 G 7 71° 16% - - 22° 75° 70.5° - - -
6/27 4:50am 184 3 G 7 72° 16% - - 23° 75° 70.6° - - -
6/27 4:40am 181 3 G 6 71° 16% - - 23° 75° 70.6° - - -
6/27 4:30am 178 3 G 6 72° 16% - - 23° 75° 70.6° - - -
6/27 4:20am 182 3 G 7 71° 16% - - 23° 75° 70.6° - - -
6/27 4:10am 177 3 G 6 71° 16% - - 23° 75° 70.8° - - -
6/27 4:00am 178 4 G 7 72° 16% - - 23° 75° 71.3° - - -
6/27 3:50am 184 3 G 6 72° 16% - - 23° 75° 71.5° - - -
6/27 3:40am 179 4 G 7 72° 16% - - 24° 75° 71.8° - - -
6/27 3:30am 182 4 G 7 72° 16% - - 24° 75° 71.8° - - -
6/27 3:20am 186 3 G 8 72° 16% - - 24° 75° 71.8° - - -
6/27 3:10am 184 3 G 6 73° 16% - - 24° 75° 72.1° - - -
6/27 3:00am 181 5 G 8 73° 16% - - 24° 75° 72.3° - - -
6/27 2:50am 185 4 G 7 73° 16% - - 24° 75° 72.3° - - -
6/27 2:40am 184 4 G 8 73° 16% - - 24° 75° 72.3° - - -
6/27 2:30am 183 4 G 9 73° 16% - - 24° 75° 72.4° - - -
6/27 2:20am 194 4 G 8 73° 16% - - 24° 75° 72.4° - - -
6/27 2:10am 183 4 G 8 73° 16% - - 24° 75° 72.5° - - -
6/27 2:00am 184 4 G 8 73° 16% - - 24° 75° 73° - - -
6/27 1:50am 183 5 G 9 74° 15% - - 24° 75° 73.1° - - -
6/27 1:40am 185 5 G 10 74° 15% - - 24° 75° 73.1° - - -
6/27 1:30am 190 5 G 9 74° 15% - - 24° 75° 73.1° - - -
6/27 1:20am 186 4 G 9 74° 15% - - 23° 75° 73.1° - - -
6/27 1:10am 188 4 G 7 74° 15% - - 23° 75° 73.1° - - -
6/27 1:00am 185 4 G 7 74° 14% - - 22° 75° 73.2° - - -
6/27 12:50am 183 3 G 6 74° 14% - - 22° 75° 73.2° - - -
6/27 12:40am 196 3 G 8 74° 13% - - 21° 75° 73.7° - - -
6/27 12:30am 196 2 G 8 74° 13% - - 20° 75° 73.8° - - -
6/27 12:20am 209 2 G 8 74° 13% - - 20° 75° 73.8° - - -
6/27 12:10am 198 3 G 6 74° 13% - - 21° 74.7° 73.9° - - -
6/27 12:00am 188 3 G 6 74° 14% - - 22° 92.6° 73.5° - - -
6/26 11:50pm 183 2 G 5 74° 14% - - 23° 92.6° 73.5° - - -
6/26 11:40pm 182 2 G 5 75° 14% - - 23° 92.6° 73.5° - - -
6/26 11:30pm 188 2 G 5 75° 14% - - 23° 92.6° 73.5° - - -
6/26 11:20pm 188 3 G 6 75° 15% - - 23° 92.6° 73.5° - - -
6/26 11:10pm 187 3 G 8 75° 15% - - 24° 92.6° 73.5° - - -
6/26 11:00pm 191 3 G 6 75° 15% - - 24° 92.6° 73.5° - - -
6/26 10:50pm 178 2 G 5 75° 15% - - 24° 92.6° 73.5° - - -
6/26 10:40pm 177 3 G 6 75° 15% - - 24° 92.6° 73.5° - - -
6/26 10:30pm 170 3 G 7 74° 16% - - 24° 92.6° 73.5° - - -
6/26 10:20pm 180 3 G 5 74° 15% - - 25° 92.6° 73.8° - - -
6/26 10:10pm 177 4 G 7 75° 15% - - 24° 92.6° 73.8° - - -
6/26 10:00pm 179 3 G 8 75° 15% - - 24° 92.6° 73.8° - - -
6/26 9:50pm 178 2 G 4 75° 15% - - 24° 92.6° 73.8° - - -
6/26 9:40pm 182 3 G 6 75° 15% - - 24° 92.6° 73.8° - - -
6/26 9:30pm 179 3 G 6 75° 15% - - 24° 92.6° 73.8° - - -
6/26 9:20pm 181 2 G 5 75° 15% - - 25° 92.6° 73.8° - - -
6/26 9:10pm 180 2 G 3 75° 15% - - 25° 92.6° 73.8° - - -
6/26 9:00pm 174 2 G 5 75° 16% - - 26° 92.6° 74° - - -
6/26 8:50pm 183 3 G 5 75° 17% - - 27° 92.6° 74° - - -
6/26 8:40pm 180 3 G 7 75° 18% - - 29° 92.6° 74.1° - - -
6/26 8:30pm 185 4 G 7 75° 19% - - 30° 92.6° 74.5° - - -
6/26 8:20pm 192 3 G 6 76° 19% - - 31° 92.6° 75.1° - - -
6/26 8:10pm 184 3 G 5 76° 20% - - 32° 92.6° 75.1° - - -
6/26 8:00pm 198 2 G 6 77° 20% - - 32° 92.6° 75.1° - - -
6/26 7:50pm 198 3 G 7 78° 19% - - 32° 92.6° 75.1° - - -
6/26 7:40pm 222 3 G 6 79° 18% - - 31° 92.6° 75.1° - - -
6/26 7:30pm 217 4 G 8 80° 16% - - 30° 92.6° 75.1° - - -
6/26 7:20pm 232 4 G 11 81° 15% - - 29° 92.6° 75.1° - - -
6/26 7:10pm 227 4 G 11 82° 14% - - 27° 92.6° 75.1° - - -
6/26 7:00pm 235 5 G 14 82° 13% - - 26° 92.6° 75.1° - - -
6/26 6:50pm 228 4 G 12 83° 12% - - 25° 92.6° 75.1° - - -
6/26 6:40pm 229 5 G 13 84° 11% - - 25° 92.6° 75.1° - - -
6/26 6:30pm 230 5 G 12 84° 11% - - 24° 92.6° 75.1° - - -
6/26 6:20pm 240 5 G 13 85° 12% - - 26° 92.6° 75.1° - - -
6/26 6:10pm 238 5 G 10 86° 12% - - 27° 92.6° 75.1° - - -
6/26 6:00pm 230 4 G 12 86° 12% - - 27° 92.6° 75.1° - - -
6/26 5:50pm 238 6 G 15 86° 12% - - 27° 92.6° 75.1° - - -
6/26 5:40pm 235 6 G 11 87° 12% - - 29° 92.6° 75.1° - - -
6/26 5:30pm 247 5 G 11 87° 13% - - 30° 92.6° 75.1° - - -
6/26 5:20pm 276 3 G 10 88° 13% - - 31° 92.6° 75.1° - - -
6/26 5:10pm 251 4 G 10 88° 13% - - 31° 92.6° 75.1° - - -
6/26 5:00pm 284 3 G 12 88° 13% - - 32° 92.6° 75.1° - - -
6/26 4:50pm 261 3 G 11 89° 14% - - 33° 92.6° 75.1° - - -
6/26 4:40pm 249 3 G 11 89° 14% - - 33° 92.6° 75.1° - - -
6/26 4:30pm 228 5 G 12 89° 14% - - 33° 92.6° 75.1° - - -
6/26 4:20pm 248 5 G 12 89° 14% - - 34° 92.6° 75.1° - - -
6/26 4:10pm 274 3 G 10 89° 14% - - 35° 92.6° 75.1° - - -
6/26 4:00pm 306 3 G 12 89° 15% - - 35° 92.6° 75.1° - - -
6/26 3:50pm 280 3 G 10 89° 15% - - 35° 92.6° 75.1° - - -
6/26 3:40pm 275 3 G 13 90° 15% - - 36° 92.6° 75.1° - - -
6/26 3:30pm 334 3 G 9 90° 15% - - 36° 92.6° 75.1° - - -
6/26 3:20pm 255 3 G 12 90° 15% - - 36° 92.6° 75.1° - - -
6/26 3:10pm 268 3 G 10 90° 15% - - 36° 92.6° 75.1° - - -
6/26 3:00pm 249 4 G 13 90° 15% - - 36° 92.6° 75.1° - - -
6/26 2:50pm 270 4 G 12 91° 15% - - 37° 92.6° 75.1° - - -
6/26 2:40pm 258 5 G 13 90° 15% - - 36° 92.6° 75.1° - - -
6/26 2:30pm 226 7 G 14 90° 15% - - 36° 92.6° 75.1° - - -
6/26 2:20pm 243 5 G 11 91° 15% - - 37° 92.6° 75.1° - - -
6/26 2:10pm 238 5 G 13 91° 15% - - 37° 92.6° 75.1° - - -
6/26 2:00pm 224 7 G 14 90° 15% - - 36° 92.6° 75.1° - - -
6/26 1:50pm 244 5 G 12 91° 15% - - 38° 92.6° 75.1° - - -
6/26 1:40pm 225 5 G 14 91° 15% - - 36° 92.6° 75.1° - - -
6/26 1:30pm 316 3 G 9 91° 15% - - 38° 92.6° 75.1° - - -
6/26 1:20pm 239 4 G 11 91° 15% - - 37° 92.6° 75.1° - - -
6/26 1:10pm 258 3 G 12 92° 15% - - 37° 92.6° 75.1° - - -
6/26 1:00pm 324 3 G 9 91° 15% - - 37° 92.6° 75.1° - - -
6/26 12:50pm 228 6 G 18 91° 14% - - 35° 92.5° 75.1° - - -
6/26 12:40pm 264 4 G 12 91° 14% - - 35° 92.5° 75.1° - - -
6/26 12:30pm 233 5 G 13 91° 14% - - 35° 92.1° 75.1° - - -
6/26 12:20pm 352 3 G 9 91° 14% - - 35° 92° 75.1° - - -
6/26 12:10pm 339 3 G 14 91° 14% - - 35° 91.9° 75.1° - - -
6/26 12:00pm 309 3 G 10 91° 14% - - 35° 91.9° 75.1° - - -
6/26 11:50am 308 2 G 9 91° 15% - - 36° 91.9° 75.1° - - -
6/26 11:40am 310 2 G 8 90° 15% - - 36° 91.1° 75.1° - - -
6/26 11:30am 304 3 G 11 90° 15% - - 36° 90.9° 75.1° - - -
6/26 11:20am 301 3 G 10 90° 15% - - 36° 90.9° 75.1° - - -
6/26 11:10am 327 3 G 8 89° 15% - - 36° 90.4° 75.1° - - -
6/26 11:00am 302 2 G 8 89° 15% - - 35° 90.3° 75.1° - - -
6/26 10:50am 331 2 G 8 90° 15% - - 36° 90.3° 75.1° - - -
6/26 10:40am 264 2 G 8 89° 15% - - 36° 90.1° 75.1° - - -
6/26 10:30am 297 2 G 9 89° 15% - - 35° 89.2° 75.1° - - -
6/26 10:20am 302 3 G 9 88° 15% - - 35° 89.1° 75.1° - - -
6/26 10:10am 277 3 G 9 88° 15% - - 35° 88.9° 75.1° - - -
6/26 10:00am 304 2 G 8 88° 16% - - 36° 88.5° 75.1° - - -
6/26 9:50am 293 2 G 5 88° 16% - - 36° 88.5° 75.1° - - -
6/26 9:40am 283 2 G 7 88° 16% - - 36° 88° 75.1° - - -
6/26 9:30am 299 1 G 5 87° 17% - - 37° 88° 75.1° - - -
6/26 9:20am 299 2 G 6 87° 17% - - 36° 87.5° 75.1° - - -
6/26 9:10am 319 2 G 5 87° 17% - - 37° 87.5° 75.1° - - -
6/26 9:00am 316 1 G 4 87° 17% - - 36° 87.5° 75.1° - - -
6/26 8:50am 331 1 G 4 86° 16% - - 35° 87.3° 75.1° - - -
6/26 8:40am 327 1 G 4 87° 16% - - 36° 87.3° 75.1° - - -
6/26 8:30am 338 1 G 4 86° 17% - - 37° 87.3° 75.1° - - -
6/26 8:20am 345 2 G 5 86° 16% - - 35° 86.3° 75.1° - - -
6/26 8:10am 24 3 G 5 86° 18% - - 37° 86.3° 75.1° - - -
6/26 8:00am 24 3 G 6 85° 18% - - 36° 85.6° 75.1° - - -
6/26 7:50am 26 3 G 6 85° 18% - - 36° 85.3° 75.1° - - -
6/26 7:40am 33 3 G 5 84° 18% - - 36° 84.6° 75.1° - - -
6/26 7:30am 32 3 G 4 83° 18% - - 35° 83.9° 75.1° - - -
6/26 7:20am 43 2 G 4 82° 18% - - 34° 83.1° 75.1° - - -
6/26 7:10am 49 2 G 4 82° 18% - - 34° 82.7° 75.1° - - -
6/26 7:00am 38 2 G 3 82° 18% - - 34° 82.7° 75.1° - - -
6/26 6:50am 26 2 G 5 82° 17% - - 33° 82.4° 75.1° - - -
6/26 6:40am 34 3 G 5 81° 17% - - 32° 82.1° 75.1° - - -
6/26 6:30am 29 3 G 6 81° 17% - - 32° 81.9° 75.1° - - -
6/26 6:20am 29 3 G 5 80° 17% - - 32° 81.7° 75.1° - - -
6/26 6:10am 24 3 G 7 80° 18% - - 33° 81.7° 75.1° - - -
6/26 6:00am 24 2 G 5 80° 18% - - 33° 81.7° 75.1° - - -